createdAt,value
2023-01-29T00:01:12.780Z,8.77
2023-01-29T00:03:42.239Z,9.30
2023-01-29T00:06:12.915Z,9.37
2023-01-29T00:08:42.162Z,10.63
2023-01-29T00:11:14.075Z,8.73
2023-01-29T00:13:42.535Z,10.23
2023-01-29T00:16:11.618Z,8.27
2023-01-29T00:18:42.707Z,8.17
2023-01-29T00:21:15.401Z,7.53
2023-01-29T00:23:44.001Z,7.57
2023-01-29T00:26:12.927Z,7.83
2023-01-29T00:28:46.077Z,7.23
2023-01-29T00:31:16.534Z,7.47
2023-01-29T00:33:45.611Z,7.77
2023-01-29T00:36:16.814Z,8.47
2023-01-29T00:38:46.436Z,8.70
2023-01-29T00:41:33.804Z,8.43
2023-01-29T00:44:20.326Z,10.37
2023-01-29T00:46:48.799Z,8.07
2023-01-29T00:49:17.423Z,7.53
2023-01-29T00:52:08.564Z,8.50
2023-01-29T00:54:37.441Z,8.23
2023-01-29T00:57:05.810Z,9.03
2023-01-29T00:59:34.202Z,8.57
2023-01-29T01:02:20.135Z,7.17
2023-01-29T01:04:48.687Z,6.73
2023-01-29T01:07:18.633Z,8.40
2023-01-29T01:10:04.301Z,9.07
2023-01-29T01:12:33.463Z,8.70
2023-01-29T01:15:01.976Z,7.93
2023-01-29T01:17:30.381Z,7.20
2023-01-29T01:19:58.853Z,4.97
2023-01-29T01:22:28.889Z,9.43
2023-01-29T01:24:57.308Z,7.50
2023-01-29T01:27:25.667Z,8.77
2023-01-29T01:29:54.030Z,7.40
2023-01-29T01:32:22.432Z,7.03
2023-01-29T01:34:50.728Z,6.97
2023-01-29T01:37:19.081Z,6.87
2023-01-29T01:39:50.551Z,8.17
2023-01-29T01:42:18.956Z,6.63
2023-01-29T01:44:58.596Z,7.87
2023-01-29T01:47:31.833Z,5.23
2023-01-29T01:50:04.127Z,7.50
2023-01-29T01:52:33.780Z,6.17
2023-01-29T01:55:04.223Z,6.37
2023-01-29T01:57:33.964Z,7.23
2023-01-29T02:00:11.108Z,6.77
2023-01-29T02:03:02.976Z,6.00
2023-01-29T02:05:51.651Z,5.27
2023-01-29T02:08:44.332Z,6.27
2023-01-29T02:11:14.869Z,5.33
2023-01-29T02:13:46.165Z,4.20
2023-01-29T02:16:14.650Z,6.03
2023-01-29T02:18:43.249Z,4.63
2023-01-29T02:21:29.224Z,4.60
2023-01-29T02:24:21.815Z,6.13
2023-01-29T02:27:05.401Z,5.83
2023-01-29T02:29:42.079Z,5.27
2023-01-29T02:32:21.689Z,5.37
2023-01-29T02:35:18.974Z,6.57
2023-01-29T02:37:58.402Z,5.13
2023-01-29T02:40:32.226Z,7.00
2023-01-29T02:43:09.928Z,6.87
2023-01-29T02:45:48.595Z,5.03
2023-01-29T02:48:20.897Z,5.03
2023-01-29T02:50:56.712Z,6.70
2023-01-29T02:53:33.670Z,5.63
2023-01-29T02:56:08.213Z,5.27
2023-01-29T02:58:40.879Z,7.57
2023-01-29T03:01:18.098Z,5.93
2023-01-29T03:03:51.840Z,6.27
2023-01-29T03:06:26.238Z,4.50
2023-01-29T03:09:00.227Z,7.47
2023-01-29T03:11:34.351Z,5.67
2023-01-29T03:14:07.412Z,5.13
2023-01-29T03:16:42.252Z,6.37
2023-01-29T03:19:16.524Z,4.67
2023-01-29T03:21:55.116Z,5.47
2023-01-29T03:24:49.470Z,7.23
2023-01-29T03:27:39.169Z,6.63
2023-01-29T03:30:29.647Z,5.53
2023-01-29T03:33:12.552Z,4.73
2023-01-29T03:35:48.359Z,5.30
2023-01-29T03:38:17.410Z,5.03
2023-01-29T03:40:53.597Z,5.97
2023-01-29T03:43:33.307Z,7.00
2023-01-29T03:46:09.382Z,6.83
2023-01-29T03:48:43.095Z,6.37
2023-01-29T03:51:21.160Z,7.20
2023-01-29T03:53:53.173Z,6.53
2023-01-29T03:56:32.231Z,6.50
2023-01-29T03:59:06.003Z,5.37
2023-01-29T04:01:58.851Z,7.50
2023-01-29T04:04:32.420Z,9.00
2023-01-29T04:07:07.397Z,7.70
2023-01-29T04:09:43.378Z,6.90
2023-01-29T04:12:17.018Z,6.50
2023-01-29T04:14:46.397Z,8.63
2023-01-29T04:17:22.153Z,8.13
2023-01-29T04:20:03.934Z,7.23
2023-01-29T04:22:36.051Z,8.73
2023-01-29T04:25:08.947Z,7.80
2023-01-29T04:27:46.840Z,8.80
2023-01-29T04:30:24.998Z,9.17
2023-01-29T04:33:03.742Z,9.00
2023-01-29T04:35:49.244Z,6.73
2023-01-29T04:38:24.824Z,8.00
2023-01-29T04:41:02.049Z,9.33
2023-01-29T04:43:35.676Z,9.13
2023-01-29T04:46:18.586Z,9.67
2023-01-29T04:49:02.277Z,9.87
2023-01-29T04:51:42.589Z,8.47
2023-01-29T04:54:17.510Z,10.03
2023-01-29T04:56:54.060Z,10.43
2023-01-29T04:59:27.767Z,8.57
2023-01-29T05:01:56.701Z,10.20
2023-01-29T05:04:26.968Z,8.23
2023-01-29T05:06:57.289Z,7.90
2023-01-29T05:09:27.071Z,8.20
2023-01-29T05:11:56.698Z,9.03
2023-01-29T05:14:28.254Z,10.27
2023-01-29T05:16:58.485Z,8.90
2023-01-29T05:19:27.039Z,8.63
2023-01-29T05:21:57.420Z,10.27
2023-01-29T05:24:27.548Z,9.10
2023-01-29T05:27:13.358Z,8.80
2023-01-29T05:29:46.048Z,9.20
2023-01-29T05:32:15.264Z,11.93
2023-01-29T05:34:43.572Z,8.97
2023-01-29T05:37:13.268Z,10.60
2023-01-29T05:39:41.605Z,10.03
2023-01-29T05:42:10.216Z,10.83
2023-01-29T05:44:38.617Z,9.27
2023-01-29T05:47:07.018Z,8.90
2023-01-29T05:49:36.753Z,10.23
2023-01-29T05:52:06.830Z,10.00
2023-01-29T05:54:36.556Z,8.67
2023-01-29T05:57:05.255Z,9.70
2023-01-29T05:59:33.652Z,10.53
2023-01-29T06:02:02.132Z,10.37
2023-01-29T06:04:30.674Z,13.13
2023-01-29T06:06:59.114Z,11.13
2023-01-29T06:09:27.624Z,38.17
2023-01-29T06:11:57.346Z,36.53
2023-01-29T06:14:25.709Z,34.67
2023-01-29T06:16:54.027Z,27.40
2023-01-29T06:19:24.291Z,21.90
2023-01-29T06:21:54.997Z,17.33
2023-01-29T06:24:23.785Z,15.17
2023-01-29T06:26:53.040Z,11.73
2023-01-29T06:29:24.212Z,11.47
2023-01-29T06:31:52.810Z,12.33
2023-01-29T06:34:21.704Z,14.63
2023-01-29T06:36:50.242Z,12.67
2023-01-29T06:39:18.666Z,12.27
2023-01-29T06:41:47.087Z,12.37
2023-01-29T06:44:18.481Z,13.10
2023-01-29T22:32:03.603Z,19.17
2023-01-29T22:34:33.065Z,22.47
2023-01-29T22:37:01.895Z,26.97
2023-01-29T22:39:31.385Z,23.27
2023-01-29T22:42:00.024Z,23.83
2023-01-29T22:44:29.881Z,20.07
2023-01-29T22:46:58.857Z,20.97
2023-01-29T22:49:32.758Z,22.53
2023-01-29T22:52:13.826Z,22.90
2023-01-29T22:54:43.556Z,20.23
2023-01-29T22:57:13.341Z,20.20
2023-01-29T22:59:42.374Z,21.13
2023-01-29T23:02:11.111Z,20.87
2023-01-29T23:04:40.916Z,21.53
2023-01-29T23:07:09.232Z,17.90
2023-01-29T23:09:37.604Z,21.20
2023-01-29T23:12:06.668Z,23.17
2023-01-29T23:14:35.143Z,20.80
2023-01-29T23:17:06.425Z,25.10
2023-01-29T23:19:35.336Z,22.93
2023-01-29T23:22:05.352Z,19.30
2023-01-29T23:24:34.387Z,22.03
2023-01-29T23:27:16.718Z,18.57
2023-01-29T23:29:46.869Z,18.57
2023-01-29T23:32:17.726Z,18.33
2023-01-29T23:34:46.403Z,18.20
2023-01-29T23:37:16.223Z,16.43
2023-01-29T23:39:44.675Z,17.73
2023-01-29T23:42:13.239Z,19.00
2023-01-29T23:44:42.739Z,17.13
2023-01-29T23:47:11.666Z,16.50
2023-01-29T23:49:40.020Z,17.40
2023-01-29T23:52:08.417Z,19.03
2023-01-29T23:54:38.136Z,17.57
2023-01-29T23:57:06.539Z,17.73
2023-01-29T23:59:35.152Z,17.33
